Airfield :
LOGIN :

Register | Disclaimer

   EN    FR    IT 

 










Legend :    VFR   Marginal VFR   IFR   Intensive IFR   Very Intensive IFR
Visi :
Ceiling :
>= 8 km
>= 3000ft
5 to 8 km
1000 to 3000 ft
1500m to 5 km
500 to 1000 ft
800 to 1500m
200 to 500 ft
< 800m
< 200 ft
Symbols :   Thunderstorms  Fog  Heavy snow  Heavy precipitations  Wind > 20 kt
SIGMETs :     Misc.  Thunderstorms  Icing  Turbulence  Mountain Waves  Volcanic Ashes







- Airport Elevation : 24 ft
- IATA code : IBZ


LEIB - Ibiza

CURRENT METAR :
  • 200730Z 09005KT 030V120 9999 BKN010 23/19 Q1012 NOSIG

EXPIRED METARs :
  • 200700Z 08003KT 010V130 9999 BKN010 22/19 Q1012 NOSIG
  • 200630Z 10003KT 030V140 9999 BKN008 22/19 Q1012 NOSIG
  • 200600Z VRB01KT 9999 BKN008 21/19 Q1012 NOSIG
  • 200530Z 36003KT 310V020 9999 BKN010 20/18 Q1012 NOSIG
  • 200500Z 36002KT 9999 FEW008 19/18 Q1012 NOSIG
  • 200430Z 36004KT 9999 SCT008 20/18 Q1011 NOSIG

TAF AMD TAF LEIB
Valid from the 20 at 06:00 until the 21 at 03:00 UTC


200628Z 2006/2103 VRB05KT 9999 SCT010 TX26/2012Z TN18/2006Z
PROB30
TEMPO 2006/2009 BKN008
TEMPO 2012/2018 16010KT
PROB30
TEMPO 2022/2103 2000 BR BKN008
No reported NOTAMs for that airfield.



MET'MAP, your aeronautical weather chart ! - Copyright ORBIFLY December 2007 - Disclaimer

ORBIFLY MET'MAP TEAM :

Programming & Development : Alexandra Zaïnal
Concept & Development : Baudouin d'Aumeries
Co-Development & Prog : Marc-Olivier Méhu
Technical & hardware support : Manuel Goepfert

Contact : metmap@orbifly.com




SOURCES & CREDITS :

   NOAA